Sutton, ND

04:41 AM CDT die 20o October, anno 2014 (GMT -0500)
Jamestown Municipal | Change Station
CLOSE
Current Station
Airport
Location: Jamestown,
Elevation: 1499 ft
Nearby Weather Stations

Elev 1499 ft 46.93 °N, 98.67 °W | Updated 45 minutes ago

Serena
Serena
41 °F
Feels Like 36 °F
N
7
Ventus Variabilis Ventus from Magis Zephyrus quam Aquilo

Hodie
High -- | Low -- °F
--% Chance of Precip.
Yesterday
High -- | Low -- °F
Precip. -- in
7:59 AM 6:36 PM
Waning Crescent, 12% visible
Pressio 30.02 in
Visibilitas 10.0 milia passuum
Clouds Serena
Frigus Venti 36 °F
Frigus in quo Ros apparet 36 °F
Umor 82%
Rainfall 0.00 in
Snow Depth Not available.
UV 0 out of 12
Pollen 1.80 out of 12
Air Quality Not available.
Flu Activity Local Activity
METAR KJMS 200856Z AUTO 29006KT 10SM CLR 05/02 A3001 RMK AO2 SLP165 T00500022 53007

More Conditions Fewer Conditions

Pressio 30.02 in
Visibilitas 10.0 milia passuum
Clouds Serena
Frigus Venti 36 °F
Frigus in quo Ros apparet 36 °F
Umor 82%
Rainfall 0.00 in
Snow Depth Not available.
UV 0 out of 12
Pollen 1.80 out of 12
Air Quality Not available.
Flu Activity Local Activity
METAR KJMS 200856Z AUTO 29006KT 10SM CLR 05/02 A3001 RMK AO2 SLP165 T00500022 53007

More Conditions Fewer Conditions

10-Day Weather Forecast

Almanac

Astronomy

Oct. 20, 2014 Rise Set
Actual Time 7:59 AM CDT 6:36 PM CDT
Civil Twilight 7:28 AM CDT 7:07 PM CDT
Nautical Twilight 6:52 AM CDT 7:43 PM CDT
Astronomical Twilight 6:17 AM CDT 8:18 PM CDT
Moon 4:36 AM CDT 5:10 PM CDT
Length Of Visible Light 11h 39m
Length of Day
10h 37m
Waning Crescent, 12% of the Moon is Illuminated
Hodie
Waning Crescent
Oct 23
New
Oct 30
First Quarter
Nov 6
Full
Nov 14
Last Quarter

Today's Extremes

State Highs State Lows

Community

WunderPhotos

Upload Photos

1,763,325 photos uploaded!

Nearby

Snow Depth

Station Depth Elevation
No new snow has been reported.

Earthquake Activity

City Distance Mag. Time & Date
No recent earthquake activity has been reported nearby.
Minimum magnitude displayed is 2.5.

Coastal Water Temperatures

Locus Calor
No Stations Reporting

Nearby Weather Stations